sensor_id;sensor_type;location;lat;lon;timestamp;P1;durP1;ratioP1;P2;durP2;ratioP2
25715;SDS011;13573;50.936;4.328;2022-07-23T00:01:53;23.07;;;14.93;;
25715;SDS011;13573;50.936;4.328;2022-07-23T00:04:20;18.20;;;14.80;;
25715;SDS011;13573;50.936;4.328;2022-07-23T00:06:48;22.90;;;16.93;;
25715;SDS011;13573;50.936;4.328;2022-07-23T00:09:16;21.77;;;15.13;;
25715;SDS011;13573;50.936;4.328;2022-07-23T00:11:42;20.10;;;15.93;;
25715;SDS011;13573;50.936;4.328;2022-07-23T00:14:08;25.47;;;16.13;;
25715;SDS011;13573;50.936;4.328;2022-07-23T00:16:36;22.97;;;15.10;;
25715;SDS011;13573;50.936;4.328;2022-07-23T00:19:02;24.93;;;16.00;;
25715;SDS011;13573;50.936;4.328;2022-07-23T00:21:30;22.20;;;15.87;;
25715;SDS011;13573;50.936;4.328;2022-07-23T00:23:56;17.63;;;13.37;;
25715;SDS011;13573;50.936;4.328;2022-07-23T00:26:24;25.53;;;15.43;;
25715;SDS011;13573;50.936;4.328;2022-07-23T00:28:52;25.57;;;16.77;;
25715;SDS011;13573;50.936;4.328;2022-07-23T00:31:18;21.10;;;15.57;;
25715;SDS011;13573;50.936;4.328;2022-07-23T00:33:46;24.27;;;17.00;;
25715;SDS011;13573;50.936;4.328;2022-07-23T00:36:12;21.47;;;15.27;;
25715;SDS011;13573;50.936;4.328;2022-07-23T00:38:39;21.47;;;14.47;;
25715;SDS011;13573;50.936;4.328;2022-07-23T00:41:06;20.10;;;15.13;;
25715;SDS011;13573;50.936;4.328;2022-07-23T00:43:32;24.60;;;17.47;;
25715;SDS011;13573;50.936;4.328;2022-07-23T00:45:59;21.63;;;16.63;;
25715;SDS011;13573;50.936;4.328;2022-07-23T00:48:26;23.57;;;16.30;;
25715;SDS011;13573;50.936;4.328;2022-07-23T00:50:52;22.90;;;17.43;;
25715;SDS011;13573;50.936;4.328;2022-07-23T00:53:19;30.23;;;16.20;;
25715;SDS011;13573;50.936;4.328;2022-07-23T00:55:46;20.70;;;15.23;;
25715;SDS011;13573;50.936;4.328;2022-07-23T00:58:14;19.30;;;14.93;;
25715;SDS011;13573;50.936;4.328;2022-07-23T01:00:42;25.20;;;16.00;;
25715;SDS011;13573;50.936;4.328;2022-07-23T01:03:09;19.80;;;14.80;;
25715;SDS011;13573;50.936;4.328;2022-07-23T01:05:35;22.23;;;15.93;;
25715;SDS011;13573;50.936;4.328;2022-07-23T01:08:03;21.60;;;15.13;;
25715;SDS011;13573;50.936;4.328;2022-07-23T01:10:30;24.37;;;16.23;;
25715;SDS011;13573;50.936;4.328;2022-07-23T01:13:05;22.20;;;15.50;;
25715;SDS011;13573;50.936;4.328;2022-07-23T01:15:34;20.00;;;16.00;;
25715;SDS011;13573;50.936;4.328;2022-07-23T01:18:02;23.27;;;15.43;;
25715;SDS011;13573;50.936;4.328;2022-07-23T01:20:30;22.17;;;15.40;;
25715;SDS011;13573;50.936;4.328;2022-07-23T01:22:57;23.60;;;15.03;;
25715;SDS011;13573;50.936;4.328;2022-07-23T01:25:25;24.23;;;15.90;;
25715;SDS011;13573;50.936;4.328;2022-07-23T01:27:52;22.63;;;17.47;;
25715;SDS011;13573;50.936;4.328;2022-07-23T01:30:20;22.70;;;14.83;;
25715;SDS011;13573;50.936;4.328;2022-07-23T01:32:47;23.47;;;15.93;;
25715;SDS011;13573;50.936;4.328;2022-07-23T01:35:13;19.50;;;14.53;;
25715;SDS011;13573;50.936;4.328;2022-07-23T01:37:40;20.20;;;14.63;;
25715;SDS011;13573;50.936;4.328;2022-07-23T01:40:07;22.70;;;15.47;;
25715;SDS011;13573;50.936;4.328;2022-07-23T01:42:36;23.10;;;15.67;;
25715;SDS011;13573;50.936;4.328;2022-07-23T01:45:04;21.00;;;14.80;;
25715;SDS011;13573;50.936;4.328;2022-07-23T01:47:31;26.67;;;16.80;;
25715;SDS011;13573;50.936;4.328;2022-07-23T01:49:58;19.70;;;15.47;;
25715;SDS011;13573;50.936;4.328;2022-07-23T01:52:24;25.63;;;15.43;;
25715;SDS011;13573;50.936;4.328;2022-07-23T01:54:51;22.77;;;16.83;;
25715;SDS011;13573;50.936;4.328;2022-07-23T01:57:19;25.00;;;17.30;;
25715;SDS011;13573;50.936;4.328;2022-07-23T01:59:45;23.73;;;16.13;;
25715;SDS011;13573;50.936;4.328;2022-07-23T02:02:11;20.60;;;16.03;;
25715;SDS011;13573;50.936;4.328;2022-07-23T02:04:39;25.83;;;17.80;;
25715;SDS011;13573;50.936;4.328;2022-07-23T02:07:07;24.07;;;15.03;;
25715;SDS011;13573;50.936;4.328;2022-07-23T02:09:34;29.40;;;19.57;;
25715;SDS011;13573;50.936;4.328;2022-07-23T02:12:00;26.90;;;17.77;;
25715;SDS011;13573;50.936;4.328;2022-07-23T02:14:27;22.60;;;16.27;;
25715;SDS011;13573;50.936;4.328;2022-07-23T02:16:54;22.80;;;16.93;;
25715;SDS011;13573;50.936;4.328;2022-07-23T02:19:22;24.63;;;17.00;;
25715;SDS011;13573;50.936;4.328;2022-07-23T02:21:48;22.30;;;16.33;;
25715;SDS011;13573;50.936;4.328;2022-07-23T02:24:15;24.87;;;16.87;;
25715;SDS011;13573;50.936;4.328;2022-07-23T02:26:43;20.53;;;15.67;;
25715;SDS011;13573;50.936;4.328;2022-07-23T02:29:10;24.70;;;16.53;;
25715;SDS011;13573;50.936;4.328;2022-07-23T02:31:39;23.90;;;17.73;;
25715;SDS011;13573;50.936;4.328;2022-07-23T02:34:06;23.37;;;16.30;;
25715;SDS011;13573;50.936;4.328;2022-07-23T02:36:34;22.73;;;16.50;;
25715;SDS011;13573;50.936;4.328;2022-07-23T02:39:00;24.60;;;16.90;;
25715;SDS011;13573;50.936;4.328;2022-07-23T02:41:27;26.53;;;15.90;;
25715;SDS011;13573;50.936;4.328;2022-07-23T02:43:54;24.73;;;16.63;;
25715;SDS011;13573;50.936;4.328;2022-07-23T02:46:22;25.60;;;16.50;;
25715;SDS011;13573;50.936;4.328;2022-07-23T02:48:49;21.47;;;15.67;;
25715;SDS011;13573;50.936;4.328;2022-07-23T02:51:16;24.63;;;16.57;;
25715;SDS011;13573;50.936;4.328;2022-07-23T02:53:42;29.77;;;18.50;;
25715;SDS011;13573;50.936;4.328;2022-07-23T02:56:09;30.23;;;19.27;;
25715;SDS011;13573;50.936;4.328;2022-07-23T02:58:36;23.60;;;16.83;;
25715;SDS011;13573;50.936;4.328;2022-07-23T03:01:03;24.77;;;15.73;;
25715;SDS011;13573;50.936;4.328;2022-07-23T03:03:30;29.37;;;18.03;;
25715;SDS011;13573;50.936;4.328;2022-07-23T03:05:56;24.83;;;16.87;;
25715;SDS011;13573;50.936;4.328;2022-07-23T03:08:23;21.73;;;16.23;;
25715;SDS011;13573;50.936;4.328;2022-07-23T03:10:50;24.90;;;17.67;;
25715;SDS011;13573;50.936;4.328;2022-07-23T03:13:18;22.00;;;16.77;;
25715;SDS011;13573;50.936;4.328;2022-07-23T03:15:45;23.37;;;16.03;;
25715;SDS011;13573;50.936;4.328;2022-07-23T03:18:12;24.50;;;17.00;;
25715;SDS011;13573;50.936;4.328;2022-07-23T03:20:39;23.47;;;16.53;;
25715;SDS011;13573;50.936;4.328;2022-07-23T03:23:05;25.07;;;16.90;;
25715;SDS011;13573;50.936;4.328;2022-07-23T03:25:34;21.27;;;15.57;;
25715;SDS011;13573;50.936;4.328;2022-07-23T03:28:02;23.47;;;16.47;;
25715;SDS011;13573;50.936;4.328;2022-07-23T03:30:28;27.63;;;19.47;;
25715;SDS011;13573;50.936;4.328;2022-07-23T03:32:55;25.03;;;16.23;;
25715;SDS011;13573;50.936;4.328;2022-07-23T03:35:22;24.17;;;16.87;;
25715;SDS011;13573;50.936;4.328;2022-07-23T03:37:52;35.00;;;19.30;;
25715;SDS011;13573;50.936;4.328;2022-07-23T03:40:18;30.30;;;18.80;;
25715;SDS011;13573;50.936;4.328;2022-07-23T03:42:45;26.17;;;17.73;;
25715;SDS011;13573;50.936;4.328;2022-07-23T03:45:12;20.27;;;15.00;;
25715;SDS011;13573;50.936;4.328;2022-07-23T03:47:39;24.53;;;16.60;;
25715;SDS011;13573;50.936;4.328;2022-07-23T03:50:06;25.63;;;17.67;;
25715;SDS011;13573;50.936;4.328;2022-07-23T03:52:33;22.20;;;15.63;;
25715;SDS011;13573;50.936;4.328;2022-07-23T03:55:01;22.07;;;16.10;;
25715;SDS011;13573;50.936;4.328;2022-07-23T03:57:28;27.60;;;17.20;;
25715;SDS011;13573;50.936;4.328;2022-07-23T03:59:57;23.70;;;14.90;;
25715;SDS011;13573;50.936;4.328;2022-07-23T04:02:24;22.80;;;15.40;;
25715;SDS011;13573;50.936;4.328;2022-07-23T04:04:50;18.97;;;13.17;;
25715;SDS011;13573;50.936;4.328;2022-07-23T04:07:18;21.90;;;15.00;;
25715;SDS011;13573;50.936;4.328;2022-07-23T04:09:44;21.87;;;16.27;;
25715;SDS011;13573;50.936;4.328;2022-07-23T04:12:11;23.80;;;16.40;;
25715;SDS011;13573;50.936;4.328;2022-07-23T04:14:39;24.10;;;15.03;;
25715;SDS011;13573;50.936;4.328;2022-07-23T04:17:06;22.43;;;14.80;;
25715;SDS011;13573;50.936;4.328;2022-07-23T04:19:34;24.10;;;16.83;;
25715;SDS011;13573;50.936;4.328;2022-07-23T04:22:03;20.13;;;15.03;;
25715;SDS011;13573;50.936;4.328;2022-07-23T04:24:29;25.03;;;15.77;;
25715;SDS011;13573;50.936;4.328;2022-07-23T04:26:56;24.93;;;15.93;;
25715;SDS011;13573;50.936;4.328;2022-07-23T04:29:23;26.63;;;18.60;;
25715;SDS011;13573;50.936;4.328;2022-07-23T04:31:52;25.53;;;16.43;;
25715;SDS011;13573;50.936;4.328;2022-07-23T04:34:19;25.20;;;17.57;;
25715;SDS011;13573;50.936;4.328;2022-07-23T04:36:46;22.37;;;15.87;;
25715;SDS011;13573;50.936;4.328;2022-07-23T04:39:12;20.53;;;16.57;;
25715;SDS011;13573;50.936;4.328;2022-07-23T04:41:40;26.67;;;16.83;;
25715;SDS011;13573;50.936;4.328;2022-07-23T04:44:06;20.70;;;15.33;;
25715;SDS011;13573;50.936;4.328;2022-07-23T04:46:33;20.67;;;15.93;;
25715;SDS011;13573;50.936;4.328;2022-07-23T04:49:00;24.73;;;16.10;;
25715;SDS011;13573;50.936;4.328;2022-07-23T04:51:26;23.30;;;16.27;;
25715;SDS011;13573;50.936;4.328;2022-07-23T04:53:54;22.77;;;15.23;;
25715;SDS011;13573;50.936;4.328;2022-07-23T04:56:21;25.93;;;18.47;;
25715;SDS011;13573;50.936;4.328;2022-07-23T04:58:48;19.90;;;15.27;;
25715;SDS011;13573;50.936;4.328;2022-07-23T05:01:15;22.30;;;16.27;;
25715;SDS011;13573;50.936;4.328;2022-07-23T05:03:41;20.80;;;15.77;;
25715;SDS011;13573;50.936;4.328;2022-07-23T05:06:08;22.47;;;15.83;;
25715;SDS011;13573;50.936;4.328;2022-07-23T05:08:35;19.27;;;15.20;;
25715;SDS011;13573;50.936;4.328;2022-07-23T05:11:03;19.63;;;14.23;;
25715;SDS011;13573;50.936;4.328;2022-07-23T05:13:29;19.93;;;13.57;;
25715;SDS011;13573;50.936;4.328;2022-07-23T05:15:56;18.23;;;13.00;;
25715;SDS011;13573;50.936;4.328;2022-07-23T05:18:23;15.10;;;11.07;;
25715;SDS011;13573;50.936;4.328;2022-07-23T05:20:50;13.50;;;10.30;;
25715;SDS011;13573;50.936;4.328;2022-07-23T05:23:17;14.57;;;10.23;;
25715;SDS011;13573;50.936;4.328;2022-07-23T05:25:43;15.43;;;9.50;;
25715;SDS011;13573;50.936;4.328;2022-07-23T05:28:10;12.90;;;9.43;;
25715;SDS011;13573;50.936;4.328;2022-07-23T05:30:37;13.17;;;10.33;;
25715;SDS011;13573;50.936;4.328;2022-07-23T05:33:03;19.63;;;11.23;;
25715;SDS011;13573;50.936;4.328;2022-07-23T05:35:30;17.27;;;9.53;;
25715;SDS011;13573;50.936;4.328;2022-07-23T05:37:56;14.60;;;10.43;;
25715;SDS011;13573;50.936;4.328;2022-07-23T05:40:23;18.00;;;11.20;;
25715;SDS011;13573;50.936;4.328;2022-07-23T05:42:50;16.47;;;11.20;;
25715;SDS011;13573;50.936;4.328;2022-07-23T05:45:16;14.47;;;11.80;;
25715;SDS011;13573;50.936;4.328;2022-07-23T05:47:44;12.90;;;10.73;;
25715;SDS011;13573;50.936;4.328;2022-07-23T05:50:12;16.53;;;11.53;;
25715;SDS011;13573;50.936;4.328;2022-07-23T05:52:40;15.37;;;11.30;;
25715;SDS011;13573;50.936;4.328;2022-07-23T05:55:08;16.40;;;10.67;;
25715;SDS011;13573;50.936;4.328;2022-07-23T05:57:36;13.37;;;9.57;;
25715;SDS011;13573;50.936;4.328;2022-07-23T06:00:04;12.10;;;10.00;;
25715;SDS011;13573;50.936;4.328;2022-07-23T06:02:32;14.30;;;9.87;;
25715;SDS011;13573;50.936;4.328;2022-07-23T06:04:58;12.73;;;9.70;;
25715;SDS011;13573;50.936;4.328;2022-07-23T06:07:26;18.47;;;11.73;;
25715;SDS011;13573;50.936;4.328;2022-07-23T06:09:52;14.80;;;10.40;;
25715;SDS011;13573;50.936;4.328;2022-07-23T06:12:19;16.53;;;10.33;;
25715;SDS011;13573;50.936;4.328;2022-07-23T06:14:49;12.57;;;9.77;;
25715;SDS011;13573;50.936;4.328;2022-07-23T06:17:17;16.70;;;11.73;;
25715;SDS011;13573;50.936;4.328;2022-07-23T06:19:45;15.13;;;9.37;;
25715;SDS011;13573;50.936;4.328;2022-07-23T06:22:11;13.37;;;10.10;;
25715;SDS011;13573;50.936;4.328;2022-07-23T06:24:38;15.77;;;9.93;;
25715;SDS011;13573;50.936;4.328;2022-07-23T06:27:05;11.70;;;10.30;;
25715;SDS011;13573;50.936;4.328;2022-07-23T06:29:32;18.10;;;11.90;;
25715;SDS011;13573;50.936;4.328;2022-07-23T06:31:59;14.67;;;11.17;;
25715;SDS011;13573;50.936;4.328;2022-07-23T06:34:26;16.57;;;10.37;;
25715;SDS011;13573;50.936;4.328;2022-07-23T06:36:52;15.47;;;10.03;;
25715;SDS011;13573;50.936;4.328;2022-07-23T06:39:19;16.83;;;10.90;;
25715;SDS011;13573;50.936;4.328;2022-07-23T06:41:45;17.47;;;10.33;;
25715;SDS011;13573;50.936;4.328;2022-07-23T06:44:12;15.27;;;9.13;;
25715;SDS011;13573;50.936;4.328;2022-07-23T06:46:39;16.83;;;11.00;;
25715;SDS011;13573;50.936;4.328;2022-07-23T06:49:05;13.87;;;9.87;;
25715;SDS011;13573;50.936;4.328;2022-07-23T06:51:32;11.90;;;9.03;;
25715;SDS011;13573;50.936;4.328;2022-07-23T06:54:00;14.53;;;9.23;;
25715;SDS011;13573;50.936;4.328;2022-07-23T06:56:27;10.00;;;8.13;;
25715;SDS011;13573;50.936;4.328;2022-07-23T06:58:54;12.53;;;8.20;;
25715;SDS011;13573;50.936;4.328;2022-07-23T07:01:20;18.93;;;10.17;;
25715;SDS011;13573;50.936;4.328;2022-07-23T07:03:47;10.57;;;8.70;;
25715;SDS011;13573;50.936;4.328;2022-07-23T07:06:14;9.43;;;7.53;;
25715;SDS011;13573;50.936;4.328;2022-07-23T07:08:41;9.53;;;7.67;;
25715;SDS011;13573;50.936;4.328;2022-07-23T07:11:10;10.60;;;8.03;;
25715;SDS011;13573;50.936;4.328;2022-07-23T07:13:37;12.17;;;8.73;;
25715;SDS011;13573;50.936;4.328;2022-07-23T07:16:04;10.37;;;7.97;;
25715;SDS011;13573;50.936;4.328;2022-07-23T07:18:31;10.30;;;7.73;;
25715;SDS011;13573;50.936;4.328;2022-07-23T07:20:58;12.50;;;7.97;;
25715;SDS011;13573;50.936;4.328;2022-07-23T07:23:25;13.35;;;8.93;;
25715;SDS011;13573;50.936;4.328;2022-07-23T07:25:53;11.80;;;8.50;;
25715;SDS011;13573;50.936;4.328;2022-07-23T07:28:19;12.40;;;7.87;;
25715;SDS011;13573;50.936;4.328;2022-07-23T07:30:46;13.15;;;9.05;;
25715;SDS011;13573;50.936;4.328;2022-07-23T07:33:13;11.57;;;8.10;;
25715;SDS011;13573;50.936;4.328;2022-07-23T07:35:40;10.90;;;7.42;;
25715;SDS011;13573;50.936;4.328;2022-07-23T07:38:06;8.10;;;6.75;;
25715;SDS011;13573;50.936;4.328;2022-07-23T07:40:33;6.40;;;5.70;;
25715;SDS011;13573;50.936;4.328;2022-07-23T07:42:59;7.95;;;5.70;;
25715;SDS011;13573;50.936;4.328;2022-07-23T07:45:27;10.65;;;7.37;;
25715;SDS011;13573;50.936;4.328;2022-07-23T07:47:53;10.13;;;6.95;;
25715;SDS011;13573;50.936;4.328;2022-07-23T07:50:21;10.48;;;7.50;;
25715;SDS011;13573;50.936;4.328;2022-07-23T07:52:48;8.03;;;7.05;;
25715;SDS011;13573;50.936;4.328;2022-07-23T07:55:14;11.33;;;5.85;;
25715;SDS011;13573;50.936;4.328;2022-07-23T07:57:42;9.20;;;6.55;;
25715;SDS011;13573;50.936;4.328;2022-07-23T08:00:09;9.33;;;7.12;;
25715;SDS011;13573;50.936;4.328;2022-07-23T08:02:41;10.90;;;7.83;;
25715;SDS011;13573;50.936;4.328;2022-07-23T08:05:08;11.25;;;7.37;;
25715;SDS011;13573;50.936;4.328;2022-07-23T08:07:36;10.85;;;6.25;;
25715;SDS011;13573;50.936;4.328;2022-07-23T08:10:06;8.20;;;5.37;;
25715;SDS011;13573;50.936;4.328;2022-07-23T08:12:42;10.32;;;7.05;;
25715;SDS011;13573;50.936;4.328;2022-07-23T08:15:11;9.88;;;6.65;;
25715;SDS011;13573;50.936;4.328;2022-07-23T08:17:39;8.80;;;6.22;;
25715;SDS011;13573;50.936;4.328;2022-07-23T08:20:06;9.78;;;7.08;;
25715;SDS011;13573;50.936;4.328;2022-07-23T08:25:16;8.25;;;6.33;;
25715;SDS011;13573;50.936;4.328;2022-07-23T08:27:47;9.05;;;7.25;;
25715;SDS011;13573;50.936;4.328;2022-07-23T08:30:14;9.68;;;6.67;;
25715;SDS011;13573;50.936;4.328;2022-07-23T08:32:48;7.08;;;5.75;;
25715;SDS011;13573;50.936;4.328;2022-07-23T08:35:16;9.73;;;6.22;;
25715;SDS011;13573;50.936;4.328;2022-07-23T08:37:43;7.37;;;5.45;;
25715;SDS011;13573;50.936;4.328;2022-07-23T08:40:10;7.25;;;5.12;;
25715;SDS011;13573;50.936;4.328;2022-07-23T08:42:38;7.17;;;5.05;;
25715;SDS011;13573;50.936;4.328;2022-07-23T08:45:06;6.87;;;4.80;;
25715;SDS011;13573;50.936;4.328;2022-07-23T08:47:36;7.17;;;4.87;;
25715;SDS011;13573;50.936;4.328;2022-07-23T08:50:04;8.68;;;6.67;;
25715;SDS011;13573;50.936;4.328;2022-07-23T08:52:32;7.00;;;5.40;;
25715;SDS011;13573;50.936;4.328;2022-07-23T08:55:02;10.63;;;6.12;;
25715;SDS011;13573;50.936;4.328;2022-07-23T08:57:29;10.28;;;5.12;;
25715;SDS011;13573;50.936;4.328;2022-07-23T08:59:56;5.15;;;4.25;;
25715;SDS011;13573;50.936;4.328;2022-07-23T09:02:23;6.28;;;5.62;;
25715;SDS011;13573;50.936;4.328;2022-07-23T09:04:50;8.30;;;6.17;;
25715;SDS011;13573;50.936;4.328;2022-07-23T09:07:17;7.40;;;5.70;;
25715;SDS011;13573;50.936;4.328;2022-07-23T09:09:44;8.85;;;5.80;;
25715;SDS011;13573;50.936;4.328;2022-07-23T09:12:10;5.75;;;3.95;;
25715;SDS011;13573;50.936;4.328;2022-07-23T09:14:39;7.97;;;5.12;;
25715;SDS011;13573;50.936;4.328;2022-07-23T09:17:09;7.45;;;4.72;;
25715;SDS011;13573;50.936;4.328;2022-07-23T09:19:37;7.95;;;4.12;;
25715;SDS011;13573;50.936;4.328;2022-07-23T09:27:22;5.28;;;4.53;;
25715;SDS011;13573;50.936;4.328;2022-07-23T09:29:55;6.37;;;4.10;;
25715;SDS011;13573;50.936;4.328;2022-07-23T09:32:23;7.03;;;4.30;;
25715;SDS011;13573;50.936;4.328;2022-07-23T09:34:49;4.78;;;3.45;;
25715;SDS011;13573;50.936;4.328;2022-07-23T09:37:17;5.90;;;3.72;;
25715;SDS011;13573;50.936;4.328;2022-07-23T09:39:45;4.05;;;3.40;;
25715;SDS011;13573;50.936;4.328;2022-07-23T09:42:15;9.33;;;4.72;;
25715;SDS011;13573;50.936;4.328;2022-07-23T09:44:45;6.60;;;4.97;;
25715;SDS011;13573;50.936;4.328;2022-07-23T09:47:14;7.10;;;4.00;;
25715;SDS011;13573;50.936;4.328;2022-07-23T09:52:14;5.78;;;4.30;;
25715;SDS011;13573;50.936;4.328;2022-07-23T09:54:44;6.85;;;3.42;;
25715;SDS011;13573;50.936;4.328;2022-07-23T09:57:12;4.55;;;2.67;;
25715;SDS011;13573;50.936;4.328;2022-07-23T09:59:41;5.85;;;3.40;;
25715;SDS011;13573;50.936;4.328;2022-07-23T10:02:10;5.58;;;3.45;;
25715;SDS011;13573;50.936;4.328;2022-07-23T10:04:38;4.20;;;2.95;;
25715;SDS011;13573;50.936;4.328;2022-07-23T10:07:07;5.87;;;3.12;;
25715;SDS011;13573;50.936;4.328;2022-07-23T10:09:37;4.60;;;3.30;;
25715;SDS011;13573;50.936;4.328;2022-07-23T10:12:09;3.47;;;2.67;;
25715;SDS011;13573;50.936;4.328;2022-07-23T10:14:48;6.50;;;3.10;;
25715;SDS011;13573;50.936;4.328;2022-07-23T10:17:15;5.78;;;3.40;;
25715;SDS011;13573;50.936;4.328;2022-07-23T10:19:42;5.97;;;2.70;;
25715;SDS011;13573;50.936;4.328;2022-07-23T10:22:10;5.40;;;3.15;;
25715;SDS011;13573;50.936;4.328;2022-07-23T10:25:04;6.10;;;3.65;;
25715;SDS011;13573;50.936;4.328;2022-07-23T10:27:48;4.47;;;3.15;;
25715;SDS011;13573;50.936;4.328;2022-07-23T10:30:24;6.00;;;3.15;;
25715;SDS011;13573;50.936;4.328;2022-07-23T10:38:24;6.58;;;3.27;;
25715;SDS011;13573;50.936;4.328;2022-07-23T10:40:53;6.30;;;3.90;;
25715;SDS011;13573;50.936;4.328;2022-07-23T10:43:25;4.78;;;3.08;;
25715;SDS011;13573;50.936;4.328;2022-07-23T10:45:52;3.27;;;2.30;;
25715;SDS011;13573;50.936;4.328;2022-07-23T10:48:22;8.28;;;3.02;;
25715;SDS011;13573;50.936;4.328;2022-07-23T10:56:13;5.90;;;2.95;;
25715;SDS011;13573;50.936;4.328;2022-07-23T10:58:46;3.10;;;2.80;;
25715;SDS011;13573;50.936;4.328;2022-07-23T11:03:56;4.78;;;2.90;;
25715;SDS011;13573;50.936;4.328;2022-07-23T11:06:30;3.67;;;2.67;;
25715;SDS011;13573;50.936;4.328;2022-07-23T11:09:23;2.85;;;2.20;;
25715;SDS011;13573;50.936;4.328;2022-07-23T11:11:39;4.10;;;2.42;;
25715;SDS011;13573;50.936;4.328;2022-07-23T11:14:06;4.62;;;2.40;;
25715;SDS011;13573;50.936;4.328;2022-07-23T11:16:41;2.10;;;1.90;;
25715;SDS011;13573;50.936;4.328;2022-07-23T11:19:04;6.05;;;2.22;;
25715;SDS011;13573;50.936;4.328;2022-07-23T11:24:14;4.00;;;2.20;;
25715;SDS011;13573;50.936;4.328;2022-07-23T11:26:45;3.95;;;2.00;;
25715;SDS011;13573;50.936;4.328;2022-07-23T11:32:08;3.75;;;2.55;;
25715;SDS011;13573;50.936;4.328;2022-07-23T11:34:41;4.15;;;2.20;;
25715;SDS011;13573;50.936;4.328;2022-07-23T11:37:10;2.60;;;1.85;;
25715;SDS011;13573;50.936;4.328;2022-07-23T11:39:39;3.58;;;2.47;;
25715;SDS011;13573;50.936;4.328;2022-07-23T11:42:06;4.28;;;2.95;;
25715;SDS011;13573;50.936;4.328;2022-07-23T11:44:34;4.37;;;3.05;;
25715;SDS011;13573;50.936;4.328;2022-07-23T11:47:05;3.65;;;2.85;;
25715;SDS011;13573;50.936;4.328;2022-07-23T11:49:33;5.05;;;2.87;;
25715;SDS011;13573;50.936;4.328;2022-07-23T11:52:03;4.05;;;2.77;;
25715;SDS011;13573;50.936;4.328;2022-07-23T11:57:10;4.70;;;3.70;;
25715;SDS011;13573;50.936;4.328;2022-07-23T11:59:37;3.35;;;2.58;;
25715;SDS011;13573;50.936;4.328;2022-07-23T12:02:06;4.08;;;2.75;;
25715;SDS011;13573;50.936;4.328;2022-07-23T12:04:37;3.22;;;2.90;;
25715;SDS011;13573;50.936;4.328;2022-07-23T12:09:44;3.80;;;2.75;;
25715;SDS011;13573;50.936;4.328;2022-07-23T12:12:11;5.30;;;3.83;;
25715;SDS011;13573;50.936;4.328;2022-07-23T12:14:46;6.85;;;3.52;;
25715;SDS011;13573;50.936;4.328;2022-07-23T12:17:12;5.35;;;3.35;;
25715;SDS011;13573;50.936;4.328;2022-07-23T12:19:39;5.72;;;3.60;;
25715;SDS011;13573;50.936;4.328;2022-07-23T12:22:05;4.75;;;3.17;;
25715;SDS011;13573;50.936;4.328;2022-07-23T12:24:51;5.40;;;3.33;;
25715;SDS011;13573;50.936;4.328;2022-07-23T12:27:09;5.25;;;3.58;;
25715;SDS011;13573;50.936;4.328;2022-07-23T12:29:37;5.42;;;3.08;;
25715;SDS011;13573;50.936;4.328;2022-07-23T12:34:36;6.03;;;3.60;;
25715;SDS011;13573;50.936;4.328;2022-07-23T12:37:04;7.12;;;3.70;;
25715;SDS011;13573;50.936;4.328;2022-07-23T12:39:31;4.42;;;3.25;;
25715;SDS011;13573;50.936;4.328;2022-07-23T12:41:58;6.35;;;3.10;;
25715;SDS011;13573;50.936;4.328;2022-07-23T12:44:25;3.02;;;2.72;;
25715;SDS011;13573;50.936;4.328;2022-07-23T12:46:52;4.00;;;3.12;;
25715;SDS011;13573;50.936;4.328;2022-07-23T12:49:25;6.90;;;2.98;;
25715;SDS011;13573;50.936;4.328;2022-07-23T12:51:53;2.90;;;2.70;;
25715;SDS011;13573;50.936;4.328;2022-07-23T12:54:26;4.80;;;3.52;;
25715;SDS011;13573;50.936;4.328;2022-07-23T12:56:50;4.28;;;3.25;;
25715;SDS011;13573;50.936;4.328;2022-07-23T12:59:17;6.70;;;4.20;;
25715;SDS011;13573;50.936;4.328;2022-07-23T13:01:44;8.18;;;3.72;;
25715;SDS011;13573;50.936;4.328;2022-07-23T13:04:17;6.90;;;5.00;;
25715;SDS011;13573;50.936;4.328;2022-07-23T13:06:46;5.35;;;3.95;;
25715;SDS011;13573;50.936;4.328;2022-07-23T13:09:16;6.80;;;4.85;;
25715;SDS011;13573;50.936;4.328;2022-07-23T13:11:45;4.80;;;3.85;;
25715;SDS011;13573;50.936;4.328;2022-07-23T13:14:12;8.63;;;3.27;;
25715;SDS011;13573;50.936;4.328;2022-07-23T13:16:40;7.08;;;3.70;;
25715;SDS011;13573;50.936;4.328;2022-07-23T13:19:07;4.62;;;3.65;;
25715;SDS011;13573;50.936;4.328;2022-07-23T13:21:34;4.40;;;3.42;;
25715;SDS011;13573;50.936;4.328;2022-07-23T13:24:01;4.40;;;3.42;;
25715;SDS011;13573;50.936;4.328;2022-07-23T13:26:27;5.03;;;2.87;;
25715;SDS011;13573;50.936;4.328;2022-07-23T13:28:54;5.05;;;3.35;;
25715;SDS011;13573;50.936;4.328;2022-07-23T13:31:22;4.50;;;2.85;;
25715;SDS011;13573;50.936;4.328;2022-07-23T13:33:48;4.97;;;3.50;;
25715;SDS011;13573;50.936;4.328;2022-07-23T13:36:15;5.33;;;3.55;;
25715;SDS011;13573;50.936;4.328;2022-07-23T13:38:42;8.40;;;3.55;;
25715;SDS011;13573;50.936;4.328;2022-07-23T13:41:09;4.53;;;3.10;;
25715;SDS011;13573;50.936;4.328;2022-07-23T13:43:36;3.62;;;2.95;;
25715;SDS011;13573;50.936;4.328;2022-07-23T13:46:02;4.55;;;3.50;;
25715;SDS011;13573;50.936;4.328;2022-07-23T13:48:29;4.78;;;3.27;;
25715;SDS011;13573;50.936;4.328;2022-07-23T13:50:56;8.20;;;4.37;;
25715;SDS011;13573;50.936;4.328;2022-07-23T13:53:23;4.20;;;3.52;;
25715;SDS011;13573;50.936;4.328;2022-07-23T13:55:52;4.12;;;3.08;;
25715;SDS011;13573;50.936;4.328;2022-07-23T13:58:18;5.55;;;3.20;;
25715;SDS011;13573;50.936;4.328;2022-07-23T14:00:47;4.92;;;3.10;;
25715;SDS011;13573;50.936;4.328;2022-07-23T14:03:16;4.30;;;3.35;;
25715;SDS011;13573;50.936;4.328;2022-07-23T14:05:44;6.00;;;3.30;;
25715;SDS011;13573;50.936;4.328;2022-07-23T14:08:11;3.37;;;2.90;;
25715;SDS011;13573;50.936;4.328;2022-07-23T14:10:38;5.65;;;2.98;;
25715;SDS011;13573;50.936;4.328;2022-07-23T14:13:04;6.70;;;3.37;;
25715;SDS011;13573;50.936;4.328;2022-07-23T14:15:31;5.95;;;3.17;;
25715;SDS011;13573;50.936;4.328;2022-07-23T14:17:58;4.58;;;3.65;;
25715;SDS011;13573;50.936;4.328;2022-07-23T14:20:25;6.47;;;3.70;;
25715;SDS011;13573;50.936;4.328;2022-07-23T14:22:51;5.40;;;3.37;;
25715;SDS011;13573;50.936;4.328;2022-07-23T14:25:20;4.83;;;3.60;;
25715;SDS011;13573;50.936;4.328;2022-07-23T14:27:47;4.10;;;3.25;;
25715;SDS011;13573;50.936;4.328;2022-07-23T14:30:14;3.42;;;3.12;;
25715;SDS011;13573;50.936;4.328;2022-07-23T14:32:40;4.70;;;3.20;;
25715;SDS011;13573;50.936;4.328;2022-07-23T14:35:09;4.12;;;3.20;;
25715;SDS011;13573;50.936;4.328;2022-07-23T14:37:38;5.50;;;3.50;;
25715;SDS011;13573;50.936;4.328;2022-07-23T14:40:05;6.87;;;3.62;;
25715;SDS011;13573;50.936;4.328;2022-07-23T14:42:32;4.42;;;3.50;;
25715;SDS011;13573;50.936;4.328;2022-07-23T14:44:59;7.87;;;3.67;;
25715;SDS011;13573;50.936;4.328;2022-07-23T14:47:26;5.20;;;3.72;;
25715;SDS011;13573;50.936;4.328;2022-07-23T14:49:52;5.70;;;3.40;;
25715;SDS011;13573;50.936;4.328;2022-07-23T14:52:19;7.33;;;3.52;;
25715;SDS011;13573;50.936;4.328;2022-07-23T14:54:46;5.28;;;3.70;;
25715;SDS011;13573;50.936;4.328;2022-07-23T14:57:13;6.40;;;3.80;;
25715;SDS011;13573;50.936;4.328;2022-07-23T14:59:40;7.95;;;3.58;;
25715;SDS011;13573;50.936;4.328;2022-07-23T15:02:08;6.90;;;4.12;;
25715;SDS011;13573;50.936;4.328;2022-07-23T15:04:35;4.92;;;3.98;;
25715;SDS011;13573;50.936;4.328;2022-07-23T15:07:02;7.53;;;3.90;;
25715;SDS011;13573;50.936;4.328;2022-07-23T15:09:29;5.47;;;3.92;;
25715;SDS011;13573;50.936;4.328;2022-07-23T15:11:56;6.42;;;4.22;;
25715;SDS011;13573;50.936;4.328;2022-07-23T15:14:22;6.55;;;3.85;;
25715;SDS011;13573;50.936;4.328;2022-07-23T15:16:49;7.70;;;4.20;;